Terminal Aerodrome Forecast
Issued by NWS Memphis, TN

Home | Current Version | Previous Version | Text Only | Print | Product List | Glossary On
Versions: 1 2 3 4 5 6 7 8 9 10 11 12 13
000
FTUS44 KMEG 051139
TAFJBR
TAF
KJBR 051139Z 0512/0612 VRB03KT P6SM -SHRA VCTS SCT040 BKN060CB
      OVC120
      TEMPO 0512/0514 4SM TSRA BR BKN040CB
     FM051500 11005KT P6SM VCSH BKN060 OVC120
     FM052000 16007KT P6SM -SHRA VCTS BKN050CB OVC120
     FM060000 17005KT P6SM VCTS BKN050CB OVC120
     FM060700 21005KT 6SM -TSRA SCT035 OVC045CB=

USA.gov is the U.S. government's official web portal to all federal, state and local government web resources and services.